sensor_id;sensor_type;location;lat;lon;timestamp;temperature;humidity
10270;DHT22;5180;50.832;5.390;2022-11-15T00:00:07;12.80;99.90
10270;DHT22;5180;50.832;5.390;2022-11-15T00:02:32;12.80;99.90
10270;DHT22;5180;50.832;5.390;2022-11-15T00:04:58;12.70;99.90
10270;DHT22;5180;50.832;5.390;2022-11-15T00:07:23;12.70;99.90
10270;DHT22;5180;50.832;5.390;2022-11-15T00:09:49;12.70;99.90
10270;DHT22;5180;50.832;5.390;2022-11-15T00:12:15;12.60;99.90
10270;DHT22;5180;50.832;5.390;2022-11-15T00:14:40;12.50;99.90
10270;DHT22;5180;50.832;5.390;2022-11-15T00:17:06;12.50;99.90
10270;DHT22;5180;50.832;5.390;2022-11-15T00:19:31;12.50;99.90
10270;DHT22;5180;50.832;5.390;2022-11-15T00:21:58;12.40;99.90
10270;DHT22;5180;50.832;5.390;2022-11-15T00:24:24;12.40;99.90
10270;DHT22;5180;50.832;5.390;2022-11-15T00:26:49;12.40;99.90
10270;DHT22;5180;50.832;5.390;2022-11-15T00:29:15;12.40;99.90
10270;DHT22;5180;50.832;5.390;2022-11-15T00:31:40;12.40;99.90
10270;DHT22;5180;50.832;5.390;2022-11-15T00:34:06;12.40;99.90
10270;DHT22;5180;50.832;5.390;2022-11-15T00:36:35;12.50;99.90
10270;DHT22;5180;50.832;5.390;2022-11-15T00:39:02;12.50;99.90
10270;DHT22;5180;50.832;5.390;2022-11-15T00:41:28;12.50;99.90
10270;DHT22;5180;50.832;5.390;2022-11-15T00:43:54;12.60;99.90
10270;DHT22;5180;50.832;5.390;2022-11-15T00:46:19;12.60;99.90
10270;DHT22;5180;50.832;5.390;2022-11-15T00:48:45;12.60;99.90
10270;DHT22;5180;50.832;5.390;2022-11-15T00:51:10;12.70;99.90
10270;DHT22;5180;50.832;5.390;2022-11-15T00:53:36;12.70;99.90
10270;DHT22;5180;50.832;5.390;2022-11-15T00:56:02;12.70;99.90
10270;DHT22;5180;50.832;5.390;2022-11-15T00:58:27;12.70;99.90
10270;DHT22;5180;50.832;5.390;2022-11-15T01:00:53;12.80;99.90
10270;DHT22;5180;50.832;5.390;2022-11-15T01:03:20;12.80;99.90
10270;DHT22;5180;50.832;5.390;2022-11-15T01:05:45;12.80;99.90
10270;DHT22;5180;50.832;5.390;2022-11-15T01:08:15;12.90;99.90
10270;DHT22;5180;50.832;5.390;2022-11-15T01:10:41;12.90;99.90
10270;DHT22;5180;50.832;5.390;2022-11-15T01:13:07;12.90;99.90
10270;DHT22;5180;50.832;5.390;2022-11-15T01:15:33;12.90;99.90
10270;DHT22;5180;50.832;5.390;2022-11-15T01:17:58;12.90;99.90
10270;DHT22;5180;50.832;5.390;2022-11-15T01:20:24;12.90;99.90
10270;DHT22;5180;50.832;5.390;2022-11-15T01:22:50;12.90;99.90
10270;DHT22;5180;50.832;5.390;2022-11-15T01:25:15;12.90;99.90
10270;DHT22;5180;50.832;5.390;2022-11-15T01:27:41;12.90;99.90
10270;DHT22;5180;50.832;5.390;2022-11-15T01:30:07;12.90;99.90
10270;DHT22;5180;50.832;5.390;2022-11-15T01:32:33;12.90;99.90
10270;DHT22;5180;50.832;5.390;2022-11-15T01:34:59;12.90;99.90
10270;DHT22;5180;50.832;5.390;2022-11-15T01:37:24;12.90;99.90
10270;DHT22;5180;50.832;5.390;2022-11-15T01:39:50;12.90;99.90
10270;DHT22;5180;50.832;5.390;2022-11-15T01:42:16;12.90;99.90
10270;DHT22;5180;50.832;5.390;2022-11-15T01:44:43;12.90;99.90
10270;DHT22;5180;50.832;5.390;2022-11-15T01:47:16;12.90;99.90
10270;DHT22;5180;50.832;5.390;2022-11-15T01:50:00;12.90;99.90
10270;DHT22;5180;50.832;5.390;2022-11-15T01:52:28;13.00;99.90
10270;DHT22;5180;50.832;5.390;2022-11-15T01:55:18;13.00;99.90
10270;DHT22;5180;50.832;5.390;2022-11-15T01:57:47;13.00;99.90
10270;DHT22;5180;50.832;5.390;2022-11-15T02:00:14;13.00;99.90
10270;DHT22;5180;50.832;5.390;2022-11-15T02:02:40;13.00;99.90
10270;DHT22;5180;50.832;5.390;2022-11-15T02:05:06;13.00;99.90
10270;DHT22;5180;50.832;5.390;2022-11-15T02:07:34;13.10;99.90
10270;DHT22;5180;50.832;5.390;2022-11-15T02:10:22;13.10;99.90
10270;DHT22;5180;50.832;5.390;2022-11-15T02:12:49;13.10;99.90
10270;DHT22;5180;50.832;5.390;2022-11-15T02:15:15;13.10;99.90
10270;DHT22;5180;50.832;5.390;2022-11-15T02:32:19;13.20;99.90
10270;DHT22;5180;50.832;5.390;2022-11-15T02:34:54;13.20;99.90
10270;DHT22;5180;50.832;5.390;2022-11-15T02:37:46;13.20;99.90
10270;DHT22;5180;50.832;5.390;2022-11-15T02:43:01;13.20;99.90
10270;DHT22;5180;50.832;5.390;2022-11-15T02:45:52;13.20;99.90
10270;DHT22;5180;50.832;5.390;2022-11-15T02:48:21;13.20;99.90
10270;DHT22;5180;50.832;5.390;2022-11-15T02:50:48;13.20;99.90
10270;DHT22;5180;50.832;5.390;2022-11-15T02:53:14;13.20;99.90
10270;DHT22;5180;50.832;5.390;2022-11-15T02:55:51;13.20;99.90
10270;DHT22;5180;50.832;5.390;2022-11-15T02:58:52;13.20;99.90
10270;DHT22;5180;50.832;5.390;2022-11-15T03:01:30;13.20;99.90
10270;DHT22;5180;50.832;5.390;2022-11-15T03:07:29;13.10;99.90
10270;DHT22;5180;50.832;5.390;2022-11-15T03:10:20;13.10;99.90
10270;DHT22;5180;50.832;5.390;2022-11-15T03:13:11;13.10;99.90
10270;DHT22;5180;50.832;5.390;2022-11-15T03:15:46;13.10;99.90
10270;DHT22;5180;50.832;5.390;2022-11-15T03:18:23;13.10;99.90
10270;DHT22;5180;50.832;5.390;2022-11-15T03:20:53;13.10;99.90
10270;DHT22;5180;50.832;5.390;2022-11-15T03:23:20;13.10;99.90
10270;DHT22;5180;50.832;5.390;2022-11-15T03:25:48;13.10;99.90
10270;DHT22;5180;50.832;5.390;2022-11-15T03:28:22;13.10;99.90
10270;DHT22;5180;50.832;5.390;2022-11-15T03:30:50;13.10;99.90
10270;DHT22;5180;50.832;5.390;2022-11-15T03:33:18;13.10;99.90
10270;DHT22;5180;50.832;5.390;2022-11-15T03:35:46;13.10;99.90
10270;DHT22;5180;50.832;5.390;2022-11-15T03:38:26;13.10;99.90
10270;DHT22;5180;50.832;5.390;2022-11-15T03:40:58;13.10;99.90
10270;DHT22;5180;50.832;5.390;2022-11-15T03:43:49;13.00;99.90
10270;DHT22;5180;50.832;5.390;2022-11-15T03:46:34;13.10;99.90
10270;DHT22;5180;50.832;5.390;2022-11-15T03:49:12;13.00;99.90
10270;DHT22;5180;50.832;5.390;2022-11-15T03:51:39;13.00;99.90
10270;DHT22;5180;50.832;5.390;2022-11-15T03:54:05;13.00;99.90
10270;DHT22;5180;50.832;5.390;2022-11-15T03:56:31;13.00;99.90
10270;DHT22;5180;50.832;5.390;2022-11-15T03:58:57;13.00;99.90
10270;DHT22;5180;50.832;5.390;2022-11-15T04:01:22;13.00;99.90
10270;DHT22;5180;50.832;5.390;2022-11-15T04:03:48;13.00;99.90
10270;DHT22;5180;50.832;5.390;2022-11-15T04:06:14;13.00;99.90
10270;DHT22;5180;50.832;5.390;2022-11-15T04:08:40;13.00;99.90
10270;DHT22;5180;50.832;5.390;2022-11-15T04:11:05;13.00;99.90
10270;DHT22;5180;50.832;5.390;2022-11-15T04:13:31;13.00;99.90
10270;DHT22;5180;50.832;5.390;2022-11-15T04:15:56;13.00;99.90
10270;DHT22;5180;50.832;5.390;2022-11-15T04:18:22;13.10;99.90
10270;DHT22;5180;50.832;5.390;2022-11-15T04:20:48;13.10;99.90
10270;DHT22;5180;50.832;5.390;2022-11-15T04:23:32;13.10;99.90
10270;DHT22;5180;50.832;5.390;2022-11-15T04:26:19;13.10;99.90
10270;DHT22;5180;50.832;5.390;2022-11-15T04:28:45;13.10;99.90
10270;DHT22;5180;50.832;5.390;2022-11-15T04:31:29;13.10;99.90
10270;DHT22;5180;50.832;5.390;2022-11-15T04:33:55;13.10;99.90
10270;DHT22;5180;50.832;5.390;2022-11-15T04:36:21;13.00;99.90
10270;DHT22;5180;50.832;5.390;2022-11-15T04:39:05;13.00;99.90
10270;DHT22;5180;50.832;5.390;2022-11-15T04:41:31;13.00;99.90
10270;DHT22;5180;50.832;5.390;2022-11-15T04:43:57;13.00;99.90
10270;DHT22;5180;50.832;5.390;2022-11-15T04:46:23;13.00;99.90
10270;DHT22;5180;50.832;5.390;2022-11-15T04:48:49;13.00;99.90
10270;DHT22;5180;50.832;5.390;2022-11-15T04:51:15;13.00;99.90
10270;DHT22;5180;50.832;5.390;2022-11-15T04:53:41;13.00;99.90
10270;DHT22;5180;50.832;5.390;2022-11-15T04:56:07;13.00;99.90
10270;DHT22;5180;50.832;5.390;2022-11-15T04:58:33;12.90;99.90
10270;DHT22;5180;50.832;5.390;2022-11-15T05:01:07;12.80;99.90
10270;DHT22;5180;50.832;5.390;2022-11-15T05:03:33;12.60;99.90
10270;DHT22;5180;50.832;5.390;2022-11-15T05:06:17;12.40;99.90
10270;DHT22;5180;50.832;5.390;2022-11-15T05:08:43;12.20;99.90
10270;DHT22;5180;50.832;5.390;2022-11-15T05:11:08;12.10;99.90
10270;DHT22;5180;50.832;5.390;2022-11-15T05:13:34;12.00;99.90
10270;DHT22;5180;50.832;5.390;2022-11-15T05:16:00;12.00;99.90
10270;DHT22;5180;50.832;5.390;2022-11-15T05:18:25;11.90;99.90
10270;DHT22;5180;50.832;5.390;2022-11-15T05:20:51;11.80;99.90
10270;DHT22;5180;50.832;5.390;2022-11-15T05:23:16;11.70;99.90
10270;DHT22;5180;50.832;5.390;2022-11-15T05:25:42;11.60;99.90
10270;DHT22;5180;50.832;5.390;2022-11-15T05:28:08;11.60;99.90
10270;DHT22;5180;50.832;5.390;2022-11-15T05:30:33;11.50;99.90
10270;DHT22;5180;50.832;5.390;2022-11-15T05:32:59;11.50;99.90
10270;DHT22;5180;50.832;5.390;2022-11-15T05:35:39;11.50;99.90
10270;DHT22;5180;50.832;5.390;2022-11-15T05:38:07;11.50;99.90
10270;DHT22;5180;50.832;5.390;2022-11-15T05:40:33;11.50;99.90
10270;DHT22;5180;50.832;5.390;2022-11-15T05:43:00;11.50;99.90
10270;DHT22;5180;50.832;5.390;2022-11-15T05:45:28;11.50;99.90
10270;DHT22;5180;50.832;5.390;2022-11-15T05:47:55;11.40;99.90
10270;DHT22;5180;50.832;5.390;2022-11-15T05:50:23;11.40;99.90
10270;DHT22;5180;50.832;5.390;2022-11-15T05:52:48;11.40;99.90
10270;DHT22;5180;50.832;5.390;2022-11-15T05:55:15;11.40;99.90
10270;DHT22;5180;50.832;5.390;2022-11-15T05:57:40;11.40;99.90
10270;DHT22;5180;50.832;5.390;2022-11-15T06:00:07;11.40;99.90
10270;DHT22;5180;50.832;5.390;2022-11-15T06:02:34;11.30;99.90
10270;DHT22;5180;50.832;5.390;2022-11-15T06:05:00;11.20;99.90
10270;DHT22;5180;50.832;5.390;2022-11-15T06:07:26;11.20;99.90
10270;DHT22;5180;50.832;5.390;2022-11-15T06:09:51;11.30;99.90
10270;DHT22;5180;50.832;5.390;2022-11-15T06:12:17;11.20;99.90
10270;DHT22;5180;50.832;5.390;2022-11-15T06:14:43;11.20;99.90
10270;DHT22;5180;50.832;5.390;2022-11-15T06:17:08;11.20;99.90
10270;DHT22;5180;50.832;5.390;2022-11-15T06:19:34;11.20;99.90
10270;DHT22;5180;50.832;5.390;2022-11-15T06:22:00;11.20;99.90
10270;DHT22;5180;50.832;5.390;2022-11-15T06:24:25;11.20;99.90
10270;DHT22;5180;50.832;5.390;2022-11-15T06:26:51;11.20;99.90
10270;DHT22;5180;50.832;5.390;2022-11-15T06:29:17;11.10;99.90
10270;DHT22;5180;50.832;5.390;2022-11-15T06:31:42;11.10;99.90
10270;DHT22;5180;50.832;5.390;2022-11-15T06:34:08;11.00;99.90
10270;DHT22;5180;50.832;5.390;2022-11-15T06:36:35;10.90;99.90
10270;DHT22;5180;50.832;5.390;2022-11-15T06:39:01;10.80;99.90
10270;DHT22;5180;50.832;5.390;2022-11-15T06:41:27;10.70;99.90
10270;DHT22;5180;50.832;5.390;2022-11-15T06:43:53;10.70;99.90
10270;DHT22;5180;50.832;5.390;2022-11-15T06:46:18;10.60;99.90
10270;DHT22;5180;50.832;5.390;2022-11-15T06:48:44;10.60;99.90
10270;DHT22;5180;50.832;5.390;2022-11-15T06:51:10;10.50;99.90
10270;DHT22;5180;50.832;5.390;2022-11-15T06:53:36;10.60;99.90
10270;DHT22;5180;50.832;5.390;2022-11-15T06:56:04;10.60;99.90
10270;DHT22;5180;50.832;5.390;2022-11-15T06:58:30;10.50;99.90
10270;DHT22;5180;50.832;5.390;2022-11-15T07:01:00;10.50;99.90
10270;DHT22;5180;50.832;5.390;2022-11-15T07:03:26;10.50;99.90
10270;DHT22;5180;50.832;5.390;2022-11-15T07:05:56;10.60;99.90
10270;DHT22;5180;50.832;5.390;2022-11-15T07:08:23;10.60;99.90
10270;DHT22;5180;50.832;5.390;2022-11-15T07:10:50;10.70;99.90
10270;DHT22;5180;50.832;5.390;2022-11-15T07:13:16;10.80;99.90
10270;DHT22;5180;50.832;5.390;2022-11-15T07:15:41;10.90;99.90
10270;DHT22;5180;50.832;5.390;2022-11-15T07:18:07;11.00;99.90
10270;DHT22;5180;50.832;5.390;2022-11-15T07:20:32;11.10;99.90
10270;DHT22;5180;50.832;5.390;2022-11-15T07:23:03;11.10;99.90
10270;DHT22;5180;50.832;5.390;2022-11-15T07:25:29;11.20;99.90
10270;DHT22;5180;50.832;5.390;2022-11-15T07:27:58;11.20;99.90
10270;DHT22;5180;50.832;5.390;2022-11-15T07:30:24;11.20;99.90
10270;DHT22;5180;50.832;5.390;2022-11-15T07:32:58;11.20;99.90
10270;DHT22;5180;50.832;5.390;2022-11-15T07:35:25;11.30;99.90
10270;DHT22;5180;50.832;5.390;2022-11-15T07:37:58;11.30;99.90
10270;DHT22;5180;50.832;5.390;2022-11-15T07:40:25;11.40;99.90
10270;DHT22;5180;50.832;5.390;2022-11-15T07:42:52;11.30;99.90
10270;DHT22;5180;50.832;5.390;2022-11-15T07:45:23;11.40;99.90
10270;DHT22;5180;50.832;5.390;2022-11-15T07:47:51;11.50;99.90
10270;DHT22;5180;50.832;5.390;2022-11-15T07:50:17;11.50;99.90
10270;DHT22;5180;50.832;5.390;2022-11-15T07:52:43;11.50;99.90
10270;DHT22;5180;50.832;5.390;2022-11-15T07:55:09;11.60;99.90
10270;DHT22;5180;50.832;5.390;2022-11-15T07:57:35;11.60;99.90
10270;DHT22;5180;50.832;5.390;2022-11-15T08:00:01;11.70;99.90
10270;DHT22;5180;50.832;5.390;2022-11-15T08:02:26;11.80;99.90
10270;DHT22;5180;50.832;5.390;2022-11-15T08:04:52;11.90;99.90
10270;DHT22;5180;50.832;5.390;2022-11-15T08:07:18;11.90;99.90
10270;DHT22;5180;50.832;5.390;2022-11-15T08:09:43;12.00;99.90
10270;DHT22;5180;50.832;5.390;2022-11-15T08:12:09;12.10;99.90
10270;DHT22;5180;50.832;5.390;2022-11-15T08:14:35;12.10;99.90
10270;DHT22;5180;50.832;5.390;2022-11-15T08:17:01;12.10;99.90
10270;DHT22;5180;50.832;5.390;2022-11-15T08:19:26;12.00;99.90
10270;DHT22;5180;50.832;5.390;2022-11-15T08:21:52;12.00;99.90
10270;DHT22;5180;50.832;5.390;2022-11-15T08:24:18;12.10;99.90
10270;DHT22;5180;50.832;5.390;2022-11-15T08:26:44;12.20;99.90
10270;DHT22;5180;50.832;5.390;2022-11-15T08:29:09;12.30;99.90
10270;DHT22;5180;50.832;5.390;2022-11-15T08:31:36;12.40;99.90
10270;DHT22;5180;50.832;5.390;2022-11-15T08:34:02;12.60;99.90
10270;DHT22;5180;50.832;5.390;2022-11-15T08:36:28;12.90;99.90
10270;DHT22;5180;50.832;5.390;2022-11-15T08:38:54;13.00;99.90
10270;DHT22;5180;50.832;5.390;2022-11-15T08:41:33;13.10;99.90
10270;DHT22;5180;50.832;5.390;2022-11-15T08:44:01;13.30;99.90
10270;DHT22;5180;50.832;5.390;2022-11-15T08:46:26;13.30;99.90
10270;DHT22;5180;50.832;5.390;2022-11-15T08:48:52;13.30;99.90
10270;DHT22;5180;50.832;5.390;2022-11-15T08:51:18;13.50;99.90
10270;DHT22;5180;50.832;5.390;2022-11-15T08:53:44;13.70;99.90
10270;DHT22;5180;50.832;5.390;2022-11-15T08:56:11;13.90;99.90
10270;DHT22;5180;50.832;5.390;2022-11-15T08:58:37;14.10;99.90
10270;DHT22;5180;50.832;5.390;2022-11-15T09:01:03;14.20;99.90
10270;DHT22;5180;50.832;5.390;2022-11-15T09:03:29;14.30;99.90
10270;DHT22;5180;50.832;5.390;2022-11-15T09:06:00;14.50;99.90
10270;DHT22;5180;50.832;5.390;2022-11-15T09:08:29;14.50;99.90
10270;DHT22;5180;50.832;5.390;2022-11-15T09:10:56;14.30;99.90
10270;DHT22;5180;50.832;5.390;2022-11-15T09:13:21;14.20;99.90
10270;DHT22;5180;50.832;5.390;2022-11-15T09:15:47;14.30;99.90
10270;DHT22;5180;50.832;5.390;2022-11-15T09:18:13;14.30;99.90
10270;DHT22;5180;50.832;5.390;2022-11-15T09:20:39;14.40;99.90
10270;DHT22;5180;50.832;5.390;2022-11-15T09:23:05;14.30;99.90
10270;DHT22;5180;50.832;5.390;2022-11-15T09:25:31;14.30;99.90
10270;DHT22;5180;50.832;5.390;2022-11-15T09:27:58;14.30;99.90
10270;DHT22;5180;50.832;5.390;2022-11-15T09:30:24;14.20;99.90
10270;DHT22;5180;50.832;5.390;2022-11-15T09:32:50;14.20;99.90
10270;DHT22;5180;50.832;5.390;2022-11-15T09:35:16;14.10;99.90
10270;DHT22;5180;50.832;5.390;2022-11-15T09:37:42;14.10;99.90
10270;DHT22;5180;50.832;5.390;2022-11-15T09:40:13;14.00;99.90
10270;DHT22;5180;50.832;5.390;2022-11-15T09:46:22;13.90;99.90
10270;DHT22;5180;50.832;5.390;2022-11-15T09:48:34;14.10;99.90
10270;DHT22;5180;50.832;5.390;2022-11-15T09:51:04;14.20;99.90
10270;DHT22;5180;50.832;5.390;2022-11-15T09:53:40;14.50;99.90
10270;DHT22;5180;50.832;5.390;2022-11-15T09:56:21;15.00;99.90
10270;DHT22;5180;50.832;5.390;2022-11-15T09:59:14;15.40;99.90
10270;DHT22;5180;50.832;5.390;2022-11-15T10:01:54;15.40;99.90
10270;DHT22;5180;50.832;5.390;2022-11-15T10:04:23;15.70;99.90
10270;DHT22;5180;50.832;5.390;2022-11-15T10:07:02;16.00;99.90
10270;DHT22;5180;50.832;5.390;2022-11-15T10:09:41;16.10;99.90
10270;DHT22;5180;50.832;5.390;2022-11-15T10:12:09;16.10;99.90
10270;DHT22;5180;50.832;5.390;2022-11-15T10:14:38;16.00;99.90
10270;DHT22;5180;50.832;5.390;2022-11-15T10:22:41;15.50;99.90
10270;DHT22;5180;50.832;5.390;2022-11-15T10:25:15;15.30;99.90
10270;DHT22;5180;50.832;5.390;2022-11-15T10:27:43;15.20;99.90
10270;DHT22;5180;50.832;5.390;2022-11-15T10:30:15;15.10;99.90
10270;DHT22;5180;50.832;5.390;2022-11-15T10:32:42;15.10;99.90
10270;DHT22;5180;50.832;5.390;2022-11-15T10:35:24;14.90;99.90
10270;DHT22;5180;50.832;5.390;2022-11-15T10:37:50;14.60;99.90
10270;DHT22;5180;50.832;5.390;2022-11-15T10:40:19;14.50;99.90
10270;DHT22;5180;50.832;5.390;2022-11-15T10:42:45;14.30;99.90
10270;DHT22;5180;50.832;5.390;2022-11-15T10:45:29;14.40;99.90
10270;DHT22;5180;50.832;5.390;2022-11-15T10:48:19;14.40;99.90
10270;DHT22;5180;50.832;5.390;2022-11-15T10:50:46;14.50;99.90
10270;DHT22;5180;50.832;5.390;2022-11-15T10:53:18;14.50;99.90
10270;DHT22;5180;50.832;5.390;2022-11-15T10:55:50;14.40;99.90
10270;DHT22;5180;50.832;5.390;2022-11-15T11:00:48;14.40;99.90
10270;DHT22;5180;50.832;5.390;2022-11-15T11:03:35;14.50;99.90
10270;DHT22;5180;50.832;5.390;2022-11-15T11:06:10;14.50;99.90
10270;DHT22;5180;50.832;5.390;2022-11-15T11:08:36;14.40;99.90
10270;DHT22;5180;50.832;5.390;2022-11-15T11:11:04;14.40;99.90
10270;DHT22;5180;50.832;5.390;2022-11-15T11:13:36;14.50;99.90
10270;DHT22;5180;50.832;5.390;2022-11-15T11:24:03;14.80;99.90
10270;DHT22;5180;50.832;5.390;2022-11-15T11:27:07;14.90;99.90
10270;DHT22;5180;50.832;5.390;2022-11-15T11:29:49;14.90;99.90
10270;DHT22;5180;50.832;5.390;2022-11-15T11:35:20;15.00;99.90
10270;DHT22;5180;50.832;5.390;2022-11-15T11:40:44;15.00;99.90
10270;DHT22;5180;50.832;5.390;2022-11-15T11:43:36;15.10;99.90
10270;DHT22;5180;50.832;5.390;2022-11-15T11:48:43;15.30;99.90
10270;DHT22;5180;50.832;5.390;2022-11-15T11:51:16;15.20;99.90
10270;DHT22;5180;50.832;5.390;2022-11-15T11:54:03;15.20;99.90
10270;DHT22;5180;50.832;5.390;2022-11-15T11:56:37;15.10;99.90
10270;DHT22;5180;50.832;5.390;2022-11-15T12:01:43;15.00;99.90
10270;DHT22;5180;50.832;5.390;2022-11-15T12:04:24;15.10;99.90
10270;DHT22;5180;50.832;5.390;2022-11-15T12:07:11;15.10;99.90
10270;DHT22;5180;50.832;5.390;2022-11-15T12:09:57;15.10;99.90
10270;DHT22;5180;50.832;5.390;2022-11-15T12:15:00;15.20;99.90
10270;DHT22;5180;50.832;5.390;2022-11-15T12:17:29;15.20;99.90
10270;DHT22;5180;50.832;5.390;2022-11-15T12:20:02;15.30;99.90
10270;DHT22;5180;50.832;5.390;2022-11-15T12:23:03;15.20;99.90
10270;DHT22;5180;50.832;5.390;2022-11-15T12:25:54;15.10;99.90
10270;DHT22;5180;50.832;5.390;2022-11-15T12:28:43;15.10;99.90
10270;DHT22;5180;50.832;5.390;2022-11-15T12:31:40;15.20;99.90
10270;DHT22;5180;50.832;5.390;2022-11-15T12:36:49;15.20;99.90
10270;DHT22;5180;50.832;5.390;2022-11-15T12:39:16;15.30;99.90
10270;DHT22;5180;50.832;5.390;2022-11-15T13:02:22;15.80;99.90
10270;DHT22;5180;50.832;5.390;2022-11-15T13:04:50;15.80;99.90
10270;DHT22;5180;50.832;5.390;2022-11-15T13:10:03;15.80;99.90
10270;DHT22;5180;50.832;5.390;2022-11-15T13:17:48;15.80;99.90
10270;DHT22;5180;50.832;5.390;2022-11-15T13:27:50;15.80;99.90
10270;DHT22;5180;50.832;5.390;2022-11-15T13:30:24;15.80;99.90
10270;DHT22;5180;50.832;5.390;2022-11-15T13:32:50;15.80;99.90
10270;DHT22;5180;50.832;5.390;2022-11-15T13:35:24;15.80;99.90
10270;DHT22;5180;50.832;5.390;2022-11-15T13:37:51;15.90;99.90
10270;DHT22;5180;50.832;5.390;2022-11-15T13:40:27;15.90;99.90
10270;DHT22;5180;50.832;5.390;2022-11-15T13:42:56;15.90;99.90
10270;DHT22;5180;50.832;5.390;2022-11-15T13:45:22;16.00;99.90
10270;DHT22;5180;50.832;5.390;2022-11-15T13:47:53;16.00;99.90
10270;DHT22;5180;50.832;5.390;2022-11-15T13:50:22;15.90;99.90
10270;DHT22;5180;50.832;5.390;2022-11-15T13:52:50;15.90;99.90
10270;DHT22;5180;50.832;5.390;2022-11-15T13:55:19;15.90;99.90
10270;DHT22;5180;50.832;5.390;2022-11-15T13:57:54;15.80;99.90
10270;DHT22;5180;50.832;5.390;2022-11-15T14:02:51;15.60;99.90
10270;DHT22;5180;50.832;5.390;2022-11-15T14:05:19;15.50;99.90
10270;DHT22;5180;50.832;5.390;2022-11-15T14:08:12;15.40;99.90
10270;DHT22;5180;50.832;5.390;2022-11-15T14:10:39;15.30;99.90
10270;DHT22;5180;50.832;5.390;2022-11-15T14:13:27;15.20;99.90
10270;DHT22;5180;50.832;5.390;2022-11-15T14:15:53;15.20;99.90
10270;DHT22;5180;50.832;5.390;2022-11-15T14:18:47;15.10;99.90
10270;DHT22;5180;50.832;5.390;2022-11-15T14:21:13;15.00;99.90
10270;DHT22;5180;50.832;5.390;2022-11-15T14:23:39;14.90;99.90
10270;DHT22;5180;50.832;5.390;2022-11-15T14:26:05;14.90;99.90
10270;DHT22;5180;50.832;5.390;2022-11-15T14:28:33;14.80;99.90
10270;DHT22;5180;50.832;5.390;2022-11-15T14:31:09;14.80;99.90
10270;DHT22;5180;50.832;5.390;2022-11-15T14:33:37;14.80;99.90
10270;DHT22;5180;50.832;5.390;2022-11-15T14:36:17;14.70;99.90
10270;DHT22;5180;50.832;5.390;2022-11-15T14:38:43;14.80;99.90
10270;DHT22;5180;50.832;5.390;2022-11-15T14:41:27;14.70;99.90
10270;DHT22;5180;50.832;5.390;2022-11-15T14:43:53;14.70;99.90
10270;DHT22;5180;50.832;5.390;2022-11-15T14:46:18;14.70;99.90
10270;DHT22;5180;50.832;5.390;2022-11-15T14:48:44;14.70;99.90
10270;DHT22;5180;50.832;5.390;2022-11-15T14:51:16;14.70;99.90
10270;DHT22;5180;50.832;5.390;2022-11-15T14:53:43;14.70;99.90
10270;DHT22;5180;50.832;5.390;2022-11-15T14:56:09;14.70;99.90
10270;DHT22;5180;50.832;5.390;2022-11-15T14:58:35;14.60;99.90
10270;DHT22;5180;50.832;5.390;2022-11-15T15:01:21;14.70;99.90
10270;DHT22;5180;50.832;5.390;2022-11-15T15:03:47;14.60;99.90
10270;DHT22;5180;50.832;5.390;2022-11-15T15:06:12;14.60;99.90
10270;DHT22;5180;50.832;5.390;2022-11-15T15:08:41;14.70;99.90
10270;DHT22;5180;50.832;5.390;2022-11-15T15:11:14;14.60;99.90
10270;DHT22;5180;50.832;5.390;2022-11-15T15:13:40;14.60;99.90
10270;DHT22;5180;50.832;5.390;2022-11-15T15:16:05;14.60;99.90
10270;DHT22;5180;50.832;5.390;2022-11-15T15:18:31;14.60;99.90
10270;DHT22;5180;50.832;5.390;2022-11-15T15:20:58;14.50;99.90
10270;DHT22;5180;50.832;5.390;2022-11-15T15:23:32;14.50;99.90
10270;DHT22;5180;50.832;5.390;2022-11-15T15:25:58;14.40;99.90
10270;DHT22;5180;50.832;5.390;2022-11-15T15:28:24;14.50;99.90
10270;DHT22;5180;50.832;5.390;2022-11-15T15:30:50;14.40;99.90
10270;DHT22;5180;50.832;5.390;2022-11-15T15:33:16;14.40;99.90
10270;DHT22;5180;50.832;5.390;2022-11-15T15:35:41;14.30;99.90
10270;DHT22;5180;50.832;5.390;2022-11-15T15:38:13;14.30;99.90
10270;DHT22;5180;50.832;5.390;2022-11-15T15:40:40;14.30;99.90
10270;DHT22;5180;50.832;5.390;2022-11-15T15:43:06;14.20;99.90
10270;DHT22;5180;50.832;5.390;2022-11-15T15:45:36;14.10;99.90
10270;DHT22;5180;50.832;5.390;2022-11-15T15:48:01;14.00;99.90
10270;DHT22;5180;50.832;5.390;2022-11-15T15:50:29;14.00;99.90
10270;DHT22;5180;50.832;5.390;2022-11-15T15:52:57;13.80;99.90
10270;DHT22;5180;50.832;5.390;2022-11-15T15:55:23;13.80;99.90
10270;DHT22;5180;50.832;5.390;2022-11-15T15:57:50;13.70;99.90
10270;DHT22;5180;50.832;5.390;2022-11-15T16:00:17;13.60;99.90
10270;DHT22;5180;50.832;5.390;2022-11-15T16:02:43;13.50;99.90
10270;DHT22;5180;50.832;5.390;2022-11-15T16:05:10;13.40;99.90
10270;DHT22;5180;50.832;5.390;2022-11-15T16:07:35;13.30;99.90
10270;DHT22;5180;50.832;5.390;2022-11-15T16:10:24;13.20;99.90
10270;DHT22;5180;50.832;5.390;2022-11-15T16:12:48;13.20;99.90
10270;DHT22;5180;50.832;5.390;2022-11-15T16:15:15;13.20;99.90
10270;DHT22;5180;50.832;5.390;2022-11-15T16:17:50;13.10;99.90
10270;DHT22;5180;50.832;5.390;2022-11-15T16:20:45;13.10;99.90
10270;DHT22;5180;50.832;5.390;2022-11-15T16:23:14;13.00;99.90
10270;DHT22;5180;50.832;5.390;2022-11-15T16:25:41;12.90;99.90
10270;DHT22;5180;50.832;5.390;2022-11-15T16:28:28;12.90;99.90
10270;DHT22;5180;50.832;5.390;2022-11-15T16:33:30;12.90;99.90
10270;DHT22;5180;50.832;5.390;2022-11-15T16:35:56;12.90;99.90
10270;DHT22;5180;50.832;5.390;2022-11-15T16:38:22;12.80;99.90
10270;DHT22;5180;50.832;5.390;2022-11-15T16:40:47;12.90;99.90
10270;DHT22;5180;50.832;5.390;2022-11-15T16:43:13;12.80;99.90
10270;DHT22;5180;50.832;5.390;2022-11-15T16:45:39;12.80;99.90
10270;DHT22;5180;50.832;5.390;2022-11-15T16:48:05;12.80;99.90
10270;DHT22;5180;50.832;5.390;2022-11-15T16:50:33;12.70;99.90
10270;DHT22;5180;50.832;5.390;2022-11-15T16:53:04;12.60;99.90
10270;DHT22;5180;50.832;5.390;2022-11-15T16:55:29;12.60;99.90
10270;DHT22;5180;50.832;5.390;2022-11-15T16:57:56;12.60;99.90
10270;DHT22;5180;50.832;5.390;2022-11-15T17:00:26;12.60;99.90
10270;DHT22;5180;50.832;5.390;2022-11-15T17:02:52;12.60;99.90
10270;DHT22;5180;50.832;5.390;2022-11-15T17:05:20;12.60;99.90
10270;DHT22;5180;50.832;5.390;2022-11-15T17:07:48;12.70;99.90
10270;DHT22;5180;50.832;5.390;2022-11-15T17:10:15;12.70;99.90
10270;DHT22;5180;50.832;5.390;2022-11-15T17:12:41;12.70;99.90
10270;DHT22;5180;50.832;5.390;2022-11-15T17:15:07;12.70;99.90
10270;DHT22;5180;50.832;5.390;2022-11-15T17:17:33;12.70;99.90
10270;DHT22;5180;50.832;5.390;2022-11-15T17:19:58;12.70;99.90
10270;DHT22;5180;50.832;5.390;2022-11-15T17:22:24;12.70;99.90
10270;DHT22;5180;50.832;5.390;2022-11-15T17:24:50;12.80;99.90
10270;DHT22;5180;50.832;5.390;2022-11-15T17:27:15;12.80;99.90
10270;DHT22;5180;50.832;5.390;2022-11-15T17:29:42;12.80;99.90
10270;DHT22;5180;50.832;5.390;2022-11-15T17:32:08;12.80;99.90
10270;DHT22;5180;50.832;5.390;2022-11-15T17:34:33;12.80;99.90
10270;DHT22;5180;50.832;5.390;2022-11-15T17:36:59;12.90;99.90